sensor_id;sensor_type;location;lat;lon;timestamp;P1;durP1;ratioP1;P2;durP2;ratioP2
49392;SDS011;35268;42.642;23.308;2023-04-25T00:01:54;3.65;;;2.17;;
49392;SDS011;35268;42.642;23.308;2023-04-25T00:04:21;3.13;;;1.65;;
49392;SDS011;35268;42.642;23.308;2023-04-25T00:06:47;4.05;;;1.20;;
49392;SDS011;35268;42.642;23.308;2023-04-25T00:09:13;2.60;;;1.20;;
49392;SDS011;35268;42.642;23.308;2023-04-25T00:11:40;1.55;;;1.15;;
49392;SDS011;35268;42.642;23.308;2023-04-25T00:14:05;5.72;;;1.15;;
49392;SDS011;35268;42.642;23.308;2023-04-25T00:16:31;1.35;;;0.95;;
49392;SDS011;35268;42.642;23.308;2023-04-25T00:18:59;2.55;;;1.10;;
49392;SDS011;35268;42.642;23.308;2023-04-25T00:21:25;3.92;;;0.90;;
49392;SDS011;35268;42.642;23.308;2023-04-25T00:23:52;2.45;;;1.15;;
49392;SDS011;35268;42.642;23.308;2023-04-25T00:26:17;2.33;;;1.30;;
49392;SDS011;35268;42.642;23.308;2023-04-25T00:28:43;1.98;;;1.17;;
49392;SDS011;35268;42.642;23.308;2023-04-25T00:31:08;5.80;;;1.55;;
49392;SDS011;35268;42.642;23.308;2023-04-25T00:33:34;3.55;;;1.48;;
49392;SDS011;35268;42.642;23.308;2023-04-25T00:36:00;2.55;;;1.52;;
49392;SDS011;35268;42.642;23.308;2023-04-25T00:38:26;3.47;;;1.83;;
49392;SDS011;35268;42.642;23.308;2023-04-25T00:40:51;4.50;;;2.63;;
49392;SDS011;35268;42.642;23.308;2023-04-25T00:43:18;4.00;;;2.83;;
49392;SDS011;35268;42.642;23.308;2023-04-25T00:45:43;5.55;;;2.83;;
49392;SDS011;35268;42.642;23.308;2023-04-25T00:48:11;4.25;;;2.80;;
49392;SDS011;35268;42.642;23.308;2023-04-25T00:50:39;6.50;;;3.45;;
49392;SDS011;35268;42.642;23.308;2023-04-25T00:53:05;8.77;;;4.22;;
49392;SDS011;35268;42.642;23.308;2023-04-25T00:55:31;5.63;;;3.70;;
49392;SDS011;35268;42.642;23.308;2023-04-25T00:57:59;6.38;;;3.55;;
49392;SDS011;35268;42.642;23.308;2023-04-25T01:00:25;8.75;;;4.68;;
49392;SDS011;35268;42.642;23.308;2023-04-25T01:02:50;7.40;;;4.47;;
49392;SDS011;35268;42.642;23.308;2023-04-25T01:05:16;6.78;;;4.53;;
49392;SDS011;35268;42.642;23.308;2023-04-25T01:07:44;10.82;;;4.22;;
49392;SDS011;35268;42.642;23.308;2023-04-25T01:10:10;7.72;;;4.32;;
49392;SDS011;35268;42.642;23.308;2023-04-25T01:12:35;7.88;;;3.72;;
49392;SDS011;35268;42.642;23.308;2023-04-25T01:15:01;5.97;;;3.78;;
49392;SDS011;35268;42.642;23.308;2023-04-25T01:17:26;6.00;;;3.72;;
49392;SDS011;35268;42.642;23.308;2023-04-25T01:19:53;9.50;;;4.95;;
49392;SDS011;35268;42.642;23.308;2023-04-25T01:22:18;8.27;;;5.13;;
49392;SDS011;35268;42.642;23.308;2023-04-25T01:24:43;13.40;;;8.20;;
49392;SDS011;35268;42.642;23.308;2023-04-25T01:27:10;8.20;;;5.93;;
49392;SDS011;35268;42.642;23.308;2023-04-25T01:29:36;7.68;;;5.53;;
49392;SDS011;35268;42.642;23.308;2023-04-25T01:32:01;8.50;;;5.40;;
49392;SDS011;35268;42.642;23.308;2023-04-25T01:34:28;8.35;;;6.07;;
49392;SDS011;35268;42.642;23.308;2023-04-25T01:36:54;10.50;;;6.38;;
49392;SDS011;35268;42.642;23.308;2023-04-25T01:39:19;8.40;;;5.80;;
49392;SDS011;35268;42.642;23.308;2023-04-25T01:41:45;12.02;;;5.85;;
49392;SDS011;35268;42.642;23.308;2023-04-25T01:44:12;9.63;;;6.00;;
49392;SDS011;35268;42.642;23.308;2023-04-25T01:46:38;11.35;;;6.32;;
49392;SDS011;35268;42.642;23.308;2023-04-25T01:49:04;11.32;;;6.80;;
49392;SDS011;35268;42.642;23.308;2023-04-25T01:51:29;11.07;;;6.82;;
49392;SDS011;35268;42.642;23.308;2023-04-25T01:53:56;10.93;;;6.70;;
49392;SDS011;35268;42.642;23.308;2023-04-25T01:56:22;10.75;;;7.80;;
49392;SDS011;35268;42.642;23.308;2023-04-25T01:58:48;11.25;;;7.72;;
49392;SDS011;35268;42.642;23.308;2023-04-25T02:01:13;11.63;;;8.70;;
49392;SDS011;35268;42.642;23.308;2023-04-25T02:03:39;13.27;;;9.02;;
49392;SDS011;35268;42.642;23.308;2023-04-25T02:06:05;12.05;;;8.48;;
49392;SDS011;35268;42.642;23.308;2023-04-25T02:08:30;11.90;;;8.60;;
49392;SDS011;35268;42.642;23.308;2023-04-25T02:10:56;12.75;;;7.05;;
49392;SDS011;35268;42.642;23.308;2023-04-25T02:13:22;10.98;;;7.57;;
49392;SDS011;35268;42.642;23.308;2023-04-25T02:15:47;13.10;;;7.70;;
49392;SDS011;35268;42.642;23.308;2023-04-25T02:18:13;13.00;;;7.82;;
49392;SDS011;35268;42.642;23.308;2023-04-25T02:20:41;11.90;;;8.23;;
49392;SDS011;35268;42.642;23.308;2023-04-25T02:23:06;12.60;;;8.18;;
49392;SDS011;35268;42.642;23.308;2023-04-25T02:25:32;14.05;;;8.30;;
49392;SDS011;35268;42.642;23.308;2023-04-25T02:27:57;11.63;;;7.50;;
49392;SDS011;35268;42.642;23.308;2023-04-25T02:30:23;15.82;;;8.30;;
49392;SDS011;35268;42.642;23.308;2023-04-25T02:32:48;10.88;;;8.07;;
49392;SDS011;35268;42.642;23.308;2023-04-25T02:35:14;14.68;;;8.70;;
49392;SDS011;35268;42.642;23.308;2023-04-25T02:37:40;11.55;;;7.05;;
49392;SDS011;35268;42.642;23.308;2023-04-25T02:40:05;7.88;;;5.50;;
49392;SDS011;35268;42.642;23.308;2023-04-25T02:42:32;10.27;;;6.75;;
49392;SDS011;35268;42.642;23.308;2023-04-25T02:44:57;10.80;;;5.78;;
49392;SDS011;35268;42.642;23.308;2023-04-25T02:47:23;8.50;;;4.80;;
49392;SDS011;35268;42.642;23.308;2023-04-25T02:49:48;9.05;;;4.45;;
49392;SDS011;35268;42.642;23.308;2023-04-25T02:52:14;6.97;;;4.28;;
49392;SDS011;35268;42.642;23.308;2023-04-25T02:54:40;9.32;;;4.78;;
49392;SDS011;35268;42.642;23.308;2023-04-25T02:57:05;12.02;;;5.65;;
49392;SDS011;35268;42.642;23.308;2023-04-25T02:59:31;10.05;;;6.05;;
49392;SDS011;35268;42.642;23.308;2023-04-25T03:01:57;11.32;;;5.90;;
49392;SDS011;35268;42.642;23.308;2023-04-25T03:04:22;10.82;;;6.20;;
49392;SDS011;35268;42.642;23.308;2023-04-25T03:06:49;9.98;;;5.90;;
49392;SDS011;35268;42.642;23.308;2023-04-25T03:09:18;9.13;;;6.00;;
49392;SDS011;35268;42.642;23.308;2023-04-25T03:11:44;8.82;;;6.43;;
49392;SDS011;35268;42.642;23.308;2023-04-25T03:14:10;11.75;;;5.57;;
49392;SDS011;35268;42.642;23.308;2023-04-25T03:16:36;10.20;;;7.13;;
49392;SDS011;35268;42.642;23.308;2023-04-25T03:19:02;12.20;;;7.13;;
49392;SDS011;35268;42.642;23.308;2023-04-25T03:21:28;10.38;;;6.63;;
49392;SDS011;35268;42.642;23.308;2023-04-25T03:23:54;14.40;;;7.10;;
49392;SDS011;35268;42.642;23.308;2023-04-25T03:26:19;10.32;;;7.22;;
49392;SDS011;35268;42.642;23.308;2023-04-25T03:28:45;12.40;;;6.75;;
49392;SDS011;35268;42.642;23.308;2023-04-25T03:31:10;12.60;;;8.52;;
49392;SDS011;35268;42.642;23.308;2023-04-25T03:33:36;12.85;;;8.75;;
49392;SDS011;35268;42.642;23.308;2023-04-25T03:36:01;16.25;;;9.00;;
49392;SDS011;35268;42.642;23.308;2023-04-25T03:38:27;12.43;;;8.00;;
49392;SDS011;35268;42.642;23.308;2023-04-25T03:40:53;13.23;;;9.23;;
49392;SDS011;35268;42.642;23.308;2023-04-25T03:43:19;16.55;;;10.02;;
49392;SDS011;35268;42.642;23.308;2023-04-25T03:45:44;17.55;;;11.10;;
49392;SDS011;35268;42.642;23.308;2023-04-25T03:48:10;19.40;;;11.27;;
49392;SDS011;35268;42.642;23.308;2023-04-25T03:50:36;19.60;;;13.38;;
49392;SDS011;35268;42.642;23.308;2023-04-25T03:53:02;18.63;;;11.30;;
49392;SDS011;35268;42.642;23.308;2023-04-25T03:55:27;17.77;;;11.57;;
49392;SDS011;35268;42.642;23.308;2023-04-25T03:57:52;16.98;;;11.98;;
49392;SDS011;35268;42.642;23.308;2023-04-25T04:00:18;16.60;;;10.88;;
49392;SDS011;35268;42.642;23.308;2023-04-25T04:02:43;17.17;;;10.98;;
49392;SDS011;35268;42.642;23.308;2023-04-25T04:05:09;17.20;;;10.20;;
49392;SDS011;35268;42.642;23.308;2023-04-25T04:07:34;12.82;;;9.02;;
49392;SDS011;35268;42.642;23.308;2023-04-25T04:10:05;17.63;;;8.75;;
49392;SDS011;35268;42.642;23.308;2023-04-25T04:12:31;9.73;;;7.35;;
49392;SDS011;35268;42.642;23.308;2023-04-25T04:14:57;12.85;;;8.55;;
49392;SDS011;35268;42.642;23.308;2023-04-25T04:17:22;12.90;;;7.82;;
49392;SDS011;35268;42.642;23.308;2023-04-25T04:19:48;16.63;;;9.15;;
49392;SDS011;35268;42.642;23.308;2023-04-25T04:22:13;10.80;;;7.82;;
49392;SDS011;35268;42.642;23.308;2023-04-25T04:24:39;13.27;;;8.65;;
49392;SDS011;35268;42.642;23.308;2023-04-25T04:27:04;15.25;;;9.40;;
49392;SDS011;35268;42.642;23.308;2023-04-25T04:29:30;13.23;;;8.15;;
49392;SDS011;35268;42.642;23.308;2023-04-25T04:31:56;16.27;;;7.10;;
49392;SDS011;35268;42.642;23.308;2023-04-25T04:34:21;9.02;;;6.53;;
49392;SDS011;35268;42.642;23.308;2023-04-25T04:36:47;8.13;;;5.47;;
49392;SDS011;35268;42.642;23.308;2023-04-25T04:39:13;11.23;;;7.20;;
49392;SDS011;35268;42.642;23.308;2023-04-25T04:41:39;14.95;;;7.65;;
49392;SDS011;35268;42.642;23.308;2023-04-25T04:44:05;11.38;;;7.18;;
49392;SDS011;35268;42.642;23.308;2023-04-25T04:46:31;13.13;;;8.18;;
49392;SDS011;35268;42.642;23.308;2023-04-25T04:49:02;10.55;;;6.90;;
49392;SDS011;35268;42.642;23.308;2023-04-25T04:51:29;9.23;;;6.80;;
49392;SDS011;35268;42.642;23.308;2023-04-25T04:53:56;10.02;;;7.80;;
49392;SDS011;35268;42.642;23.308;2023-04-25T04:56:23;14.43;;;9.35;;
49392;SDS011;35268;42.642;23.308;2023-04-25T04:58:50;12.10;;;7.25;;
49392;SDS011;35268;42.642;23.308;2023-04-25T05:01:16;13.25;;;8.38;;
49392;SDS011;35268;42.642;23.308;2023-04-25T05:03:41;11.35;;;7.60;;
49392;SDS011;35268;42.642;23.308;2023-04-25T05:06:06;15.18;;;8.20;;
49392;SDS011;35268;42.642;23.308;2023-04-25T05:08:33;16.02;;;7.07;;
49392;SDS011;35268;42.642;23.308;2023-04-25T05:10:59;12.23;;;7.38;;
49392;SDS011;35268;42.642;23.308;2023-04-25T05:13:24;13.85;;;7.55;;
49392;SDS011;35268;42.642;23.308;2023-04-25T05:15:50;11.75;;;7.35;;
49392;SDS011;35268;42.642;23.308;2023-04-25T05:18:15;16.52;;;7.60;;
49392;SDS011;35268;42.642;23.308;2023-04-25T05:20:41;11.65;;;8.45;;
49392;SDS011;35268;42.642;23.308;2023-04-25T05:23:06;17.98;;;8.52;;
49392;SDS011;35268;42.642;23.308;2023-04-25T05:25:32;11.63;;;7.55;;
49392;SDS011;35268;42.642;23.308;2023-04-25T05:27:57;12.23;;;7.35;;
49392;SDS011;35268;42.642;23.308;2023-04-25T05:30:23;11.45;;;7.60;;
49392;SDS011;35268;42.642;23.308;2023-04-25T05:32:48;12.13;;;7.40;;
49392;SDS011;35268;42.642;23.308;2023-04-25T05:35:14;10.48;;;7.38;;
49392;SDS011;35268;42.642;23.308;2023-04-25T05:37:39;13.93;;;7.53;;
49392;SDS011;35268;42.642;23.308;2023-04-25T05:40:05;8.23;;;6.72;;
49392;SDS011;35268;42.642;23.308;2023-04-25T05:42:32;10.80;;;6.68;;
49392;SDS011;35268;42.642;23.308;2023-04-25T05:44:57;12.15;;;8.30;;
49392;SDS011;35268;42.642;23.308;2023-04-25T05:47:23;11.13;;;6.72;;
49392;SDS011;35268;42.642;23.308;2023-04-25T05:49:48;12.07;;;7.10;;
49392;SDS011;35268;42.642;23.308;2023-04-25T05:52:14;10.15;;;7.07;;
49392;SDS011;35268;42.642;23.308;2023-04-25T05:54:40;11.43;;;7.82;;
49392;SDS011;35268;42.642;23.308;2023-04-25T05:57:06;9.98;;;7.43;;
49392;SDS011;35268;42.642;23.308;2023-04-25T05:59:31;15.93;;;8.43;;
49392;SDS011;35268;42.642;23.308;2023-04-25T06:01:57;12.18;;;8.25;;
49392;SDS011;35268;42.642;23.308;2023-04-25T06:04:22;14.77;;;7.95;;
49392;SDS011;35268;42.642;23.308;2023-04-25T06:06:47;12.80;;;8.05;;
49392;SDS011;35268;42.642;23.308;2023-04-25T06:09:13;13.10;;;8.30;;
49392;SDS011;35268;42.642;23.308;2023-04-25T06:11:38;11.55;;;8.55;;
49392;SDS011;35268;42.642;23.308;2023-04-25T06:14:05;12.95;;;8.95;;
49392;SDS011;35268;42.642;23.308;2023-04-25T06:16:31;11.75;;;8.18;;
49392;SDS011;35268;42.642;23.308;2023-04-25T06:18:56;11.20;;;7.38;;
49392;SDS011;35268;42.642;23.308;2023-04-25T06:21:22;10.57;;;7.18;;
49392;SDS011;35268;42.642;23.308;2023-04-25T06:23:47;10.10;;;7.10;;
49392;SDS011;35268;42.642;23.308;2023-04-25T06:26:12;15.88;;;8.13;;
49392;SDS011;35268;42.642;23.308;2023-04-25T06:28:38;19.25;;;9.70;;
49392;SDS011;35268;42.642;23.308;2023-04-25T06:31:03;14.45;;;10.07;;
49392;SDS011;35268;42.642;23.308;2023-04-25T06:33:29;13.55;;;9.65;;
49392;SDS011;35268;42.642;23.308;2023-04-25T06:35:54;15.93;;;10.38;;
49392;SDS011;35268;42.642;23.308;2023-04-25T06:38:19;14.02;;;10.15;;
49392;SDS011;35268;42.642;23.308;2023-04-25T06:40:45;15.98;;;9.30;;
49392;SDS011;35268;42.642;23.308;2023-04-25T06:43:10;13.25;;;8.13;;
49392;SDS011;35268;42.642;23.308;2023-04-25T06:45:36;11.82;;;6.78;;
49392;SDS011;35268;42.642;23.308;2023-04-25T06:48:12;10.95;;;7.07;;
49392;SDS011;35268;42.642;23.308;2023-04-25T06:50:39;10.50;;;7.05;;
49392;SDS011;35268;42.642;23.308;2023-04-25T06:53:04;10.43;;;6.85;;
49392;SDS011;35268;42.642;23.308;2023-04-25T06:55:30;10.15;;;6.63;;
49392;SDS011;35268;42.642;23.308;2023-04-25T06:57:56;9.65;;;7.55;;
49392;SDS011;35268;42.642;23.308;2023-04-25T07:00:21;18.48;;;8.23;;
49392;SDS011;35268;42.642;23.308;2023-04-25T07:02:47;14.30;;;7.32;;
49392;SDS011;35268;42.642;23.308;2023-04-25T07:05:16;9.32;;;6.82;;
49392;SDS011;35268;42.642;23.308;2023-04-25T07:07:56;9.63;;;6.72;;
49392;SDS011;35268;42.642;23.308;2023-04-25T07:10:21;7.95;;;5.82;;
49392;SDS011;35268;42.642;23.308;2023-04-25T07:12:47;11.73;;;7.55;;
49392;SDS011;35268;42.642;23.308;2023-04-25T07:15:12;12.25;;;7.03;;
49392;SDS011;35268;42.642;23.308;2023-04-25T07:17:38;11.65;;;6.95;;
49392;SDS011;35268;42.642;23.308;2023-04-25T07:20:04;10.80;;;7.00;;
49392;SDS011;35268;42.642;23.308;2023-04-25T07:22:31;13.30;;;7.05;;
49392;SDS011;35268;42.642;23.308;2023-04-25T07:24:57;13.75;;;7.13;;
49392;SDS011;35268;42.642;23.308;2023-04-25T07:27:22;11.45;;;5.95;;
49392;SDS011;35268;42.642;23.308;2023-04-25T07:29:48;12.02;;;7.00;;
49392;SDS011;35268;42.642;23.308;2023-04-25T07:32:13;16.95;;;6.10;;
49392;SDS011;35268;42.642;23.308;2023-04-25T07:34:39;14.85;;;6.55;;
49392;SDS011;35268;42.642;23.308;2023-04-25T07:37:05;11.23;;;5.60;;
49392;SDS011;35268;42.642;23.308;2023-04-25T07:39:30;13.00;;;6.20;;
49392;SDS011;35268;42.642;23.308;2023-04-25T07:41:56;17.85;;;5.80;;
49392;SDS011;35268;42.642;23.308;2023-04-25T07:44:23;51.13;;;20.52;;
49392;SDS011;35268;42.642;23.308;2023-04-25T07:46:49;16.20;;;7.68;;
49392;SDS011;35268;42.642;23.308;2023-04-25T07:49:15;15.65;;;7.00;;
49392;SDS011;35268;42.642;23.308;2023-04-25T07:51:40;14.73;;;5.82;;
49392;SDS011;35268;42.642;23.308;2023-04-25T07:54:08;13.45;;;4.63;;
49392;SDS011;35268;42.642;23.308;2023-04-25T07:56:34;17.35;;;5.35;;
49392;SDS011;35268;42.642;23.308;2023-04-25T07:59:00;10.30;;;5.38;;
49392;SDS011;35268;42.642;23.308;2023-04-25T08:01:25;10.85;;;5.00;;
49392;SDS011;35268;42.642;23.308;2023-04-25T08:03:51;12.25;;;5.32;;
49392;SDS011;35268;42.642;23.308;2023-04-25T08:06:17;24.77;;;6.72;;
49392;SDS011;35268;42.642;23.308;2023-04-25T08:08:43;16.77;;;6.05;;
49392;SDS011;35268;42.642;23.308;2023-04-25T08:11:08;30.08;;;7.43;;
49392;SDS011;35268;42.642;23.308;2023-04-25T08:13:34;12.32;;;5.00;;
49392;SDS011;35268;42.642;23.308;2023-04-25T08:16:00;10.77;;;5.95;;
49392;SDS011;35268;42.642;23.308;2023-04-25T08:18:25;10.73;;;5.00;;
49392;SDS011;35268;42.642;23.308;2023-04-25T08:20:51;10.55;;;4.95;;
49392;SDS011;35268;42.642;23.308;2023-04-25T08:23:16;13.80;;;5.40;;
49392;SDS011;35268;42.642;23.308;2023-04-25T08:25:41;16.73;;;5.60;;
49392;SDS011;35268;42.642;23.308;2023-04-25T08:28:07;24.67;;;5.32;;
49392;SDS011;35268;42.642;23.308;2023-04-25T08:30:32;14.55;;;5.43;;
49392;SDS011;35268;42.642;23.308;2023-04-25T08:32:58;7.13;;;4.00;;
49392;SDS011;35268;42.642;23.308;2023-04-25T08:35:23;9.52;;;3.83;;
49392;SDS011;35268;42.642;23.308;2023-04-25T08:37:49;10.98;;;3.78;;
49392;SDS011;35268;42.642;23.308;2023-04-25T08:40:15;7.90;;;3.35;;
49392;SDS011;35268;42.642;23.308;2023-04-25T08:42:43;6.55;;;2.45;;
49392;SDS011;35268;42.642;23.308;2023-04-25T08:45:10;7.63;;;2.53;;
49392;SDS011;35268;42.642;23.308;2023-04-25T08:47:37;4.20;;;1.92;;
49392;SDS011;35268;42.642;23.308;2023-04-25T08:50:03;5.68;;;2.35;;
49392;SDS011;35268;42.642;23.308;2023-04-25T08:52:32;7.30;;;2.40;;
49392;SDS011;35268;42.642;23.308;2023-04-25T08:55:02;3.53;;;1.83;;
49392;SDS011;35268;42.642;23.308;2023-04-25T08:57:29;3.55;;;1.80;;
49392;SDS011;35268;42.642;23.308;2023-04-25T08:59:56;6.80;;;2.90;;
49392;SDS011;35268;42.642;23.308;2023-04-25T09:02:23;10.55;;;2.88;;
49392;SDS011;35268;42.642;23.308;2023-04-25T09:04:50;13.60;;;3.55;;
49392;SDS011;35268;42.642;23.308;2023-04-25T09:07:15;8.60;;;4.97;;
49392;SDS011;35268;42.642;23.308;2023-04-25T09:09:46;8.18;;;4.28;;
49392;SDS011;35268;42.642;23.308;2023-04-25T09:12:11;12.02;;;5.47;;
49392;SDS011;35268;42.642;23.308;2023-04-25T09:14:37;9.73;;;4.20;;
49392;SDS011;35268;42.642;23.308;2023-04-25T09:17:03;12.63;;;4.32;;
49392;SDS011;35268;42.642;23.308;2023-04-25T09:19:33;6.85;;;3.30;;
49392;SDS011;35268;42.642;23.308;2023-04-25T09:22:04;11.35;;;3.97;;
49392;SDS011;35268;42.642;23.308;2023-04-25T09:24:38;10.38;;;5.13;;
49392;SDS011;35268;42.642;23.308;2023-04-25T09:27:07;8.55;;;3.67;;
49392;SDS011;35268;42.642;23.308;2023-04-25T09:29:35;11.43;;;5.60;;
49392;SDS011;35268;42.642;23.308;2023-04-25T09:34:40;9.82;;;4.57;;
49392;SDS011;35268;42.642;23.308;2023-04-25T09:37:08;8.85;;;4.53;;
49392;SDS011;35268;42.642;23.308;2023-04-25T09:39:34;9.18;;;4.32;;
49392;SDS011;35268;42.642;23.308;2023-04-25T09:42:00;8.75;;;4.35;;
49392;SDS011;35268;42.642;23.308;2023-04-25T09:44:25;8.13;;;4.25;;
49392;SDS011;35268;42.642;23.308;2023-04-25T09:46:52;10.57;;;4.85;;
49392;SDS011;35268;42.642;23.308;2023-04-25T09:49:19;9.82;;;4.43;;
49392;SDS011;35268;42.642;23.308;2023-04-25T09:51:58;9.18;;;4.05;;
49392;SDS011;35268;42.642;23.308;2023-04-25T09:54:25;2.83;;;1.40;;
49392;SDS011;35268;42.642;23.308;2023-04-25T09:56:51;2.63;;;1.65;;
49392;SDS011;35268;42.642;23.308;2023-04-25T09:59:21;2.42;;;1.27;;
49392;SDS011;35268;42.642;23.308;2023-04-25T10:01:50;4.22;;;1.25;;
49392;SDS011;35268;42.642;23.308;2023-04-25T10:04:18;2.50;;;0.60;;
49392;SDS011;35268;42.642;23.308;2023-04-25T10:06:48;1.63;;;0.75;;
49392;SDS011;35268;42.642;23.308;2023-04-25T10:09:16;3.97;;;1.08;;
49392;SDS011;35268;42.642;23.308;2023-04-25T10:11:42;4.07;;;0.77;;
49392;SDS011;35268;42.642;23.308;2023-04-25T10:14:10;3.47;;;0.77;;
49392;SDS011;35268;42.642;23.308;2023-04-25T10:16:37;3.47;;;0.70;;
49392;SDS011;35268;42.642;23.308;2023-04-25T10:19:03;2.45;;;0.43;;
49392;SDS011;35268;42.642;23.308;2023-04-25T10:21:29;1.02;;;0.40;;
49392;SDS011;35268;42.642;23.308;2023-04-25T10:23:58;1.98;;;0.50;;
49392;SDS011;35268;42.642;23.308;2023-04-25T10:26:25;1.50;;;0.60;;
49392;SDS011;35268;42.642;23.308;2023-04-25T10:28:58;4.80;;;1.27;;
49392;SDS011;35268;42.642;23.308;2023-04-25T10:31:26;4.78;;;0.90;;
49392;SDS011;35268;42.642;23.308;2023-04-25T10:33:52;1.17;;;0.60;;
49392;SDS011;35268;42.642;23.308;2023-04-25T10:36:19;1.60;;;0.70;;
49392;SDS011;35268;42.642;23.308;2023-04-25T10:38:47;0.60;;;0.47;;
49392;SDS011;35268;42.642;23.308;2023-04-25T10:41:15;0.40;;;0.30;;
49392;SDS011;35268;42.642;23.308;2023-04-25T10:43:44;3.67;;;1.30;;
49392;SDS011;35268;42.642;23.308;2023-04-25T10:46:29;3.95;;;1.48;;
49392;SDS011;35268;42.642;23.308;2023-04-25T10:49:01;6.88;;;1.40;;
49392;SDS011;35268;42.642;23.308;2023-04-25T10:51:33;9.18;;;3.22;;
49392;SDS011;35268;42.642;23.308;2023-04-25T10:54:06;27.45;;;9.02;;
49392;SDS011;35268;42.642;23.308;2023-04-25T10:56:33;29.30;;;13.68;;
49392;SDS011;35268;42.642;23.308;2023-04-25T11:01:39;1.15;;;0.82;;
49392;SDS011;35268;42.642;23.308;2023-04-25T11:04:06;4.28;;;0.60;;
49392;SDS011;35268;42.642;23.308;2023-04-25T11:07:05;3.05;;;0.52;;
49392;SDS011;35268;42.642;23.308;2023-04-25T11:09:39;1.27;;;0.73;;
49392;SDS011;35268;42.642;23.308;2023-04-25T11:12:07;0.45;;;0.30;;
49392;SDS011;35268;42.642;23.308;2023-04-25T11:14:33;2.05;;;0.80;;
49392;SDS011;35268;42.642;23.308;2023-04-25T11:16:59;4.65;;;0.77;;
49392;SDS011;35268;42.642;23.308;2023-04-25T11:19:26;1.30;;;0.85;;
49392;SDS011;35268;42.642;23.308;2023-04-25T11:21:58;2.53;;;0.80;;
49392;SDS011;35268;42.642;23.308;2023-04-25T11:24:43;1.92;;;0.70;;
49392;SDS011;35268;42.642;23.308;2023-04-25T11:27:10;2.47;;;1.42;;
49392;SDS011;35268;42.642;23.308;2023-04-25T11:29:35;10.07;;;1.17;;
49392;SDS011;35268;42.642;23.308;2023-04-25T11:32:01;15.27;;;2.03;;
49392;SDS011;35268;42.642;23.308;2023-04-25T11:34:27;13.05;;;1.75;;
49392;SDS011;35268;42.642;23.308;2023-04-25T11:36:55;8.40;;;1.52;;
49392;SDS011;35268;42.642;23.308;2023-04-25T11:39:21;7.03;;;0.98;;
49392;SDS011;35268;42.642;23.308;2023-04-25T11:41:48;4.28;;;0.75;;
49392;SDS011;35268;42.642;23.308;2023-04-25T11:44:17;5.00;;;0.70;;
49392;SDS011;35268;42.642;23.308;2023-04-25T11:46:43;1.98;;;0.85;;
49392;SDS011;35268;42.642;23.308;2023-04-25T11:49:09;2.58;;;0.60;;
49392;SDS011;35268;42.642;23.308;2023-04-25T11:51:38;2.05;;;0.60;;
49392;SDS011;35268;42.642;23.308;2023-04-25T11:54:08;9.23;;;1.05;;
49392;SDS011;35268;42.642;23.308;2023-04-25T11:56:33;5.35;;;1.65;;
49392;SDS011;35268;42.642;23.308;2023-04-25T11:59:02;7.70;;;1.35;;
49392;SDS011;35268;42.642;23.308;2023-04-25T12:01:30;9.93;;;1.13;;
49392;SDS011;35268;42.642;23.308;2023-04-25T12:03:57;2.58;;;1.17;;
49392;SDS011;35268;42.642;23.308;2023-04-25T12:06:27;3.75;;;1.27;;
49392;SDS011;35268;42.642;23.308;2023-04-25T12:09:02;3.70;;;2.22;;
49392;SDS011;35268;42.642;23.308;2023-04-25T12:11:32;3.47;;;1.65;;
49392;SDS011;35268;42.642;23.308;2023-04-25T12:14:05;4.28;;;1.40;;
49392;SDS011;35268;42.642;23.308;2023-04-25T12:16:40;5.45;;;1.52;;
49392;SDS011;35268;42.642;23.308;2023-04-25T12:19:09;2.40;;;1.17;;
49392;SDS011;35268;42.642;23.308;2023-04-25T12:21:35;5.22;;;1.20;;
49392;SDS011;35268;42.642;23.308;2023-04-25T12:24:16;9.00;;;2.08;;
49392;SDS011;35268;42.642;23.308;2023-04-25T12:26:46;3.20;;;1.00;;
49392;SDS011;35268;42.642;23.308;2023-04-25T12:29:15;5.43;;;1.30;;
49392;SDS011;35268;42.642;23.308;2023-04-25T12:31:45;3.53;;;0.70;;
49392;SDS011;35268;42.642;23.308;2023-04-25T12:34:10;3.75;;;1.60;;
49392;SDS011;35268;42.642;23.308;2023-04-25T12:36:36;5.00;;;1.88;;
49392;SDS011;35268;42.642;23.308;2023-04-25T12:39:01;2.88;;;1.33;;
49392;SDS011;35268;42.642;23.308;2023-04-25T12:41:29;3.00;;;0.77;;
49392;SDS011;35268;42.642;23.308;2023-04-25T12:43:55;0.90;;;0.60;;
49392;SDS011;35268;42.642;23.308;2023-04-25T12:46:20;7.10;;;2.03;;
49392;SDS011;35268;42.642;23.308;2023-04-25T12:48:46;4.80;;;0.98;;
49392;SDS011;35268;42.642;23.308;2023-04-25T12:51:11;3.20;;;0.63;;
49392;SDS011;35268;42.642;23.308;2023-04-25T12:53:37;6.18;;;1.98;;
49392;SDS011;35268;42.642;23.308;2023-04-25T12:56:04;5.72;;;1.25;;
49392;SDS011;35268;42.642;23.308;2023-04-25T12:58:29;2.13;;;0.85;;
49392;SDS011;35268;42.642;23.308;2023-04-25T13:00:55;7.60;;;1.88;;
49392;SDS011;35268;42.642;23.308;2023-04-25T13:03:20;3.13;;;1.05;;
49392;SDS011;35268;42.642;23.308;2023-04-25T13:05:46;3.38;;;1.08;;
49392;SDS011;35268;42.642;23.308;2023-04-25T13:08:12;4.38;;;0.90;;
49392;SDS011;35268;42.642;23.308;2023-04-25T13:10:37;2.58;;;1.20;;
49392;SDS011;35268;42.642;23.308;2023-04-25T13:13:04;3.42;;;1.25;;
49392;SDS011;35268;42.642;23.308;2023-04-25T13:15:29;2.25;;;1.20;;
49392;SDS011;35268;42.642;23.308;2023-04-25T13:17:55;3.05;;;1.23;;
49392;SDS011;35268;42.642;23.308;2023-04-25T13:20:20;2.95;;;0.93;;
49392;SDS011;35268;42.642;23.308;2023-04-25T13:22:47;1.73;;;1.00;;
49392;SDS011;35268;42.642;23.308;2023-04-25T13:25:13;1.75;;;0.80;;
49392;SDS011;35268;42.642;23.308;2023-04-25T13:27:38;1.98;;;1.00;;
49392;SDS011;35268;42.642;23.308;2023-04-25T13:30:06;3.47;;;1.15;;
49392;SDS011;35268;42.642;23.308;2023-04-25T13:32:36;4.68;;;1.00;;
49392;SDS011;35268;42.642;23.308;2023-04-25T13:35:03;2.65;;;1.08;;
49392;SDS011;35268;42.642;23.308;2023-04-25T13:37:29;4.78;;;1.55;;
49392;SDS011;35268;42.642;23.308;2023-04-25T13:39:55;9.13;;;1.83;;
49392;SDS011;35268;42.642;23.308;2023-04-25T13:42:21;8.82;;;1.60;;
49392;SDS011;35268;42.642;23.308;2023-04-25T13:44:48;1.90;;;1.08;;
49392;SDS011;35268;42.642;23.308;2023-04-25T13:47:13;2.88;;;0.90;;
49392;SDS011;35268;42.642;23.308;2023-04-25T13:49:39;4.45;;;1.05;;
49392;SDS011;35268;42.642;23.308;2023-04-25T13:52:04;3.97;;;2.08;;
49392;SDS011;35268;42.642;23.308;2023-04-25T13:54:30;7.45;;;1.63;;
49392;SDS011;35268;42.642;23.308;2023-04-25T13:56:55;2.42;;;1.10;;
49392;SDS011;35268;42.642;23.308;2023-04-25T13:59:24;3.28;;;1.00;;
49392;SDS011;35268;42.642;23.308;2023-04-25T14:01:50;3.22;;;0.95;;
49392;SDS011;35268;42.642;23.308;2023-04-25T14:04:16;4.38;;;1.10;;
49392;SDS011;35268;42.642;23.308;2023-04-25T14:06:41;2.30;;;1.38;;
49392;SDS011;35268;42.642;23.308;2023-04-25T14:09:07;3.05;;;1.05;;
49392;SDS011;35268;42.642;23.308;2023-04-25T14:11:35;8.45;;;0.93;;
49392;SDS011;35268;42.642;23.308;2023-04-25T14:14:01;1.33;;;0.80;;
49392;SDS011;35268;42.642;23.308;2023-04-25T14:16:29;1.13;;;0.70;;
49392;SDS011;35268;42.642;23.308;2023-04-25T14:18:57;2.65;;;0.90;;
49392;SDS011;35268;42.642;23.308;2023-04-25T14:21:23;2.75;;;1.13;;
49392;SDS011;35268;42.642;23.308;2023-04-25T14:23:50;3.80;;;1.13;;
49392;SDS011;35268;42.642;23.308;2023-04-25T14:26:15;4.68;;;1.10;;
49392;SDS011;35268;42.642;23.308;2023-04-25T14:28:41;5.32;;;1.05;;
49392;SDS011;35268;42.642;23.308;2023-04-25T14:31:06;3.75;;;1.70;;